Data for 04/20/2008

Time Sea-Level Adjusted Pressure Absolute Pressure Temperature Relative Humidity Dew Point   
(mb) (inHg) (mb) (inHg) (C) (F) (%) (C) (F)
00:05 1006 29.71 836 24.69 -5.3 22.4 88 -6.9 19.5
00:10 1007 29.74 836 24.69 -5.6 21.9 90 -7 19.4
00:15 1007 29.74 836 24.69 -5.5 22 90 -7 19.5
00:20 1007 29.74 836 24.69 -5.6 22 90 -7 19.5
00:25 1006 29.71 836 24.69 -5.6 21.8 90 -7 19.4
00:30 1006 29.71 836 24.69 -5.7 21.8 90 -7.1 19.3
00:35 1007 29.74 836 24.69 -5.7 21.7 90 -7.2 19.1
00:40 1007 29.74 836 24.69 -5.9 21.4 90 -7.3 18.8
00:45 1007 29.74 836 24.69 -5.9 21.4 90 -7.3 18.9
00:50 1007 29.74 836 24.69 -6 21.2 89 -7.5 18.5
00:55 1007 29.74 836 24.69 -6 21.1 90 -7.5 18.6
01:00 1007 29.74 836 24.69 -5.8 21.5 89 -7.3 18.9
01:05 1006 29.71 836 24.69 -5.7 21.8 89 -7.2 19
01:10 1006 29.71 835 24.66 -5.7 21.7 89 -7.3 18.9
01:15 1006 29.71 835 24.66 -5.9 21.4 89 -7.4 18.7
01:20 1006 29.71 835 24.66 -5.9 21.4 89 -7.4 18.8
01:25 1006 29.71 835 24.66 -5.9 21.3 90 -7.4 18.7
01:30 1006 29.71 835 24.66 -5.9 21.4 90 -7.3 18.9
01:35 1006 29.71 835 24.66 -5.9 21.3 90 -7.3 18.8
01:40 1006 29.71 835 24.66 -6 21.2 90 -7.3 18.8
01:45 1006 29.71 835 24.66 -6.1 21 92 -7.3 18.9
01:50 1006 29.71 835 24.66 -6.1 21.1 92 -7.2 19.1
01:55 1006 29.71 835 24.66 -6.1 21 93 -7.1 19.2
02:00 1005 29.68 834 24.63 -6.1 21.1 94 -6.9 19.5
02:05 1005 29.68 834 24.63 -6.1 21 94 -6.9 19.6
02:10 1005 29.68 834 24.63 -6 21.2 95 -6.7 19.9
02:15 1005 29.68 834 24.63 -5.8 21.6 95 -6.4 20.4
02:20 1005 29.68 834 24.63 -5.5 22.1 96 -6.1 21.1
02:25 1005 29.68 834 24.63 -5.3 22.4 95 -6 21.3
02:30 1005 29.68 834 24.63 -5.9 21.3 94 -6.7 19.9
02:35 1005 29.68 835 24.66 -6.8 19.8 94 -7.5 18.5
02:40 1005 29.68 835 24.66 -7.3 18.9 95 -8 17.6
02:45 1006 29.71 835 24.66 -7.6 18.4 95 -8.2 17.2
02:50 1006 29.71 835 24.66 -7.8 17.9 95 -8.5 16.7
02:55 1006 29.71 835 24.66 -8 17.5 95 -8.7 16.4
03:00 1006 29.71 835 24.66 -8.2 17.3 95 -8.9 16
03:05 1006 29.71 836 24.69 -8.3 17 95 -9 15.9
03:10 1006 29.71 836 24.69 -8.5 16.7 95 -9.2 15.4
03:15 1007 29.74 836 24.69 -8.8 16.1 95 -9.5 14.8
03:20 1007 29.74 836 24.69 -9 15.9 95 -9.6 14.7
03:25 1007 29.74 836 24.69 -9.1 15.7 95 -9.7 14.5
03:30 1007 29.74 836 24.69 -9.2 15.5 95 -9.8 14.3
03:35 1007 29.74 836 24.69 -9.4 15.1 95 -10.1 13.9
03:40 1007 29.74 836 24.69 -9.5 14.9 95 -10.2 13.7
03:45 1007 29.74 836 24.69 -9.7 14.5 95 -10.4 13.2
03:50 1007 29.74 836 24.69 -10 13.9 95 -10.7 12.7
03:55 1007 29.74 836 24.69 -10.1 13.9 95 -10.7 12.7
04:00 1007 29.74 836 24.69 -10 14 95 -10.7 12.7
04:05 1007 29.74 836 24.69 -10.1 13.9 94 -10.8 12.5
04:10 1007 29.74 837 24.72 -10.1 13.8 94 -10.9 12.4
04:15 1007 29.74 837 24.72 -10.1 13.9 94 -10.9 12.4
04:20 1007 29.74 836 24.69 -10.1 13.9 94 -10.9 12.4
04:25 1007 29.74 836 24.69 -10.1 13.8 94 -11 12.3
04:30 1007 29.74 836 24.69 -10 14 94 -10.8 12.5
04:35 1007 29.74 836 24.69 -10.2 13.7 93 -11.1 12
04:40 1007 29.74 836 24.69 -10.4 13.3 93 -11.3 11.6
04:45 1007 29.74 836 24.69 -10.5 13.2 93 -11.4 11.5
04:50 1007 29.74 836 24.69 -10.4 13.2 93 -11.4 11.5
04:55 1007 29.74 837 24.72 -10.5 13.1 93 -11.5 11.3
05:00 1007 29.74 836 24.69 -10.7 12.7 92 -11.7 10.9
05:05 1008 29.77 837 24.72 -10.9 12.4 93 -11.9 10.7
05:10 1008 29.77 837 24.72 -11 12.2 92 -12 10.4
05:15 1008 29.77 837 24.72 -11 12.2 92 -12 10.4
05:20 1008 29.77 837 24.72 -11 12.1 92 -12.1 10.2
05:25 1008 29.77 837 24.72 -11.1 11.9 92 -12.2 10
05:30 1008 29.77 837 24.72 -11.2 11.9 92 -12.2 10
05:35 1007 29.74 837 24.72 -11.1 12 92 -12.2 10
05:40 1007 29.74 837 24.72 -11.2 11.9 92 -12.2 10
05:45 1007 29.74 837 24.72 -11.1 12 92 -12.2 10
05:50 1007 29.74 837 24.72 -11.1 12.1 92 -12.2 10.1
05:55 1007 29.74 836 24.69 -11.1 12 92 -12.3 9.9
06:00 1007 29.74 836 24.69 -11.1 12 92 -12.2 10
06:05 1007 29.74 836 24.69 -11.2 11.9 92 -12.3 9.9
06:10 1007 29.74 837 24.72 -11.3 11.7 92 -12.4 9.7
06:15 1007 29.74 837 24.72 -11.3 11.7 91 -12.4 9.6
06:20 1007 29.74 837 24.72 -11.3 11.7 92 -12.4 9.8
06:25 1007 29.74 836 24.69 -11.2 11.8 92 -12.3 9.9
06:30 1007 29.74 836 24.69 -11.1 12.1 92 -12.2 10.1
06:35 1007 29.74 836 24.69 -11.1 12.1 91 -12.2 10
06:40 1007 29.74 836 24.69 -11.1 12 91 -12.3 9.8
06:45 1007 29.74 836 24.69 -11.1 12.1 91 -12.3 9.9
06:50 1007 29.74 836 24.69 -11.1 12.1 90 -12.4 9.7
06:55 1007 29.74 836 24.69 -11.1 12.1 90 -12.4 9.7
07:00 1007 29.74 836 24.69 -11.1 12 90 -12.4 9.6
07:05 1007 29.74 836 24.69 -11.1 12 89 -12.5 9.4
07:10 1007 29.74 837 24.72 -11.1 11.9 89 -12.6 9.4
07:15 1007 29.74 837 24.72 -11.2 11.8 88 -12.8 9
07:20 1007 29.74 836 24.69 -11.5 11.3 89 -13 8.6
07:25 1007 29.74 837 24.72 -11.5 11.2 89 -13.1 8.5
07:30 1007 29.74 837 24.72 -11.5 11.2 88 -13.2 8.3
07:35 1007 29.74 837 24.72 -11.7 11 88 -13.3 8.1
07:40 1007 29.74 837 24.72 -11.6 11 88 -13.3 8.1
07:45 1007 29.74 837 24.72 -11.7 11 88 -13.3 8
07:50 1008 29.77 837 24.72 -11.7 10.9 88 -13.4 7.9
07:55 1008 29.77 837 24.72 -11.7 11 87 -13.3 8
08:00 1008 29.77 837 24.72 -11.6 11.1 87 -13.3 8
08:05 1008 29.77 837 24.72 -11.5 11.3 87 -13.2 8.3
08:10 1008 29.77 837 24.72 -11.5 11.4 87 -13.3 8.1
08:15 1008 29.77 837 24.72 -11.5 11.4 86 -13.3 8.1
08:20 1008 29.77 837 24.72 -11.5 11.2 86 -13.4 7.9
08:25 1008 29.77 837 24.72 -11.5 11.2 86 -13.4 7.9
08:30 1008 29.77 837 24.72 -11.5 11.2 86 -13.4 7.9
08:35 1008 29.77 837 24.72 -11.6 11.1 87 -13.4 7.8
08:40 1008 29.77 837 24.72 -11.5 11.4 86 -13.3 8
08:45 1008 29.77 837 24.72 -11.7 11 87 -13.5 7.8
08:50 1008 29.77 837 24.72 -11.4 11.4 86 -13.3 8.1
08:55 1008 29.77 837 24.72 -11.3 11.7 85 -13.3 8.1
09:00 1008 29.77 837 24.72 -11.6 11.2 86 -13.5 7.7
09:05 1008 29.77 838 24.75 -11.5 11.3 86 -13.4 7.9
09:10 1008 29.77 838 24.75 -11.5 11.3 87 -13.3 8.1
09:15 1008 29.77 838 24.75 -11.3 11.6 87 -13.1 8.5
09:20 1008 29.77 838 24.75 -11 12.3 86 -12.9 8.8
09:25 1008 29.77 838 24.75 -11 12.3 85 -13 8.7
09:30 1009 29.8 838 24.75 -10.9 12.3 86 -12.8 8.9
09:35 1009 29.8 838 24.75 -10.8 12.6 86 -12.7 9.2
09:40 1009 29.8 838 24.75 -10.9 12.4 88 -12.5 9.4
09:45 1009 29.8 838 24.75 -10.8 12.7 88 -12.4 9.7
09:50 1009 29.8 838 24.75 -11 12.2 88 -12.6 9.4
09:55 1009 29.8 838 24.75 -10.9 12.3 90 -12.3 9.8
10:00 1009 29.8 838 24.75 -10.7 12.8 88 -12.3 9.9
10:05 1009 29.8 838 24.75 -10.7 12.8 86 -12.5 9.5
10:10 1009 29.8 838 24.75 -10.8 12.6 86 -12.7 9.1
10:15 1009 29.8 838 24.75 -10.5 13 87 -12.3 9.8
10:20 1009 29.8 838 24.75 -9.9 14.3 84 -12.1 10.3
10:25 1009 29.8 838 24.75 -10.2 13.6 85 -12.3 9.8
10:30 1009 29.8 838 24.75 -10.3 13.5 86 -12.2 10.1
10:35 1009 29.8 838 24.75 -10.2 13.7 86 -12.2 10.1
10:40 1009 29.8 838 24.75 -10 14 84 -12.2 10
10:45 1009 29.8 838 24.75 -10.1 13.9 84 -12.4 9.7
10:50 1009 29.8 838 24.75 -9.9 14.1 82 -12.4 9.7
10:55 1009 29.8 838 24.75 -10.2 13.6 82 -12.7 9.2
11:00 1009 29.8 838 24.75 -10.2 13.7 83 -12.5 9.5
11:05 1009 29.8 838 24.75 -9.7 14.5 84 -11.9 10.5
11:10 1009 29.8 838 24.75 -9.2 15.4 82 -11.8 10.8
11:15 1009 29.8 838 24.75 -9.1 15.5 80 -12.1 10.3
11:20 1009 29.8 839 24.78 -9.1 15.5 79 -12.1 10.2
11:25 1009 29.8 839 24.78 -8.8 16.2 79 -11.9 10.6
11:30 1009 29.8 839 24.78 -9 15.8 79 -12 10.4
11:35 1009 29.8 839 24.78 -8.9 16 78 -12.2 10.1
11:40 1009 29.8 838 24.75 -8.7 16.3 77 -12 10.4
11:45 1009 29.8 838 24.75 -8.7 16.4 78 -11.9 10.6
11:50 1009 29.8 838 24.75 -8.5 16.7 76 -11.9 10.5
11:55 1009 29.8 838 24.75 -8.7 16.4 75 -12.3 9.9
12:00 1009 29.8 838 24.75 -9.4 15.2 77 -12.6 9.3
12:05 1009 29.8 838 24.75 -9.4 15.2 79 -12.4 9.7
12:10 1009 29.8 838 24.75 -8.9 16.1 77 -12.1 10.2
12:15 1009 29.8 838 24.75 -9 15.8 78 -12.1 10.3
12:20 1009 29.8 838 24.75 -8.7 16.3 78 -12 10.5
12:25 1009 29.8 839 24.78 -8.3 17 77 -11.8 10.8
12:30 1009 29.8 839 24.78 -8.6 16.5 77 -11.9 10.6
12:35 1009 29.8 839 24.78 -8.5 16.8 76 -12 10.3
12:40 1009 29.8 839 24.78 -8.9 16.1 77 -12.2 10.1
12:45 1009 29.8 839 24.78 -8.5 16.7 77 -11.8 10.7
12:50 1009 29.8 839 24.78 -8.1 17.4 77 -11.5 11.4
12:55 1009 29.8 839 24.78 -7.9 17.7 75 -11.7 11
13:00 1009 29.8 839 24.78 -8.1 17.4 75 -11.8 10.8
13:05 1009 29.8 839 24.78 -8.2 17.2 76 -11.8 10.8
13:10 1010 29.83 839 24.78 -8.7 16.4 77 -12 10.5
13:15 1010 29.83 839 24.78 -8.5 16.8 79 -11.5 11.2
13:20 1010 29.83 839 24.78 -7.8 18 74 -11.6 11.1
13:25 1010 29.83 839 24.78 -7.8 18 75 -11.5 11.3
13:30 1010 29.83 839 24.78 -7.4 18.7 72 -11.6 11.2
13:35 1010 29.83 839 24.78 -7.5 18.4 73 -11.5 11.2
13:40 1010 29.83 839 24.78 -7.7 18.1 72 -11.9 10.6
13:45 1010 29.83 839 24.78 -8.2 17.3 75 -11.9 10.6
13:50 1010 29.83 839 24.78 -8.2 17.2 76 -11.8 10.8
13:55 1010 29.83 840 24.81 -7.8 17.9 76 -11.4 11.4
14:00 1010 29.83 840 24.81 -7.8 17.9 75 -11.6 11.2
14:05 1010 29.83 839 24.78 -7.9 17.8 76 -11.5 11.3
14:10 1010 29.83 840 24.81 -7.5 18.5 76 -11 12.1
14:15 1010 29.83 840 24.81 -6.9 19.5 74 -10.8 12.5
14:20 1010 29.83 840 24.81 -6.8 19.8 73 -10.8 12.6
14:25 1011 29.85 840 24.81 -6.7 19.9 73 -10.8 12.5
14:30 1011 29.85 840 24.81 -7 19.3 71 -11.4 11.5
14:35 1011 29.85 840 24.81 -7.1 19.2 74 -11 12.2
14:40 1011 29.85 840 24.81 -6.7 20 73 -10.7 12.8
14:45 1011 29.85 840 24.81 -6.8 19.8 73 -10.9 12.4
14:50 1011 29.85 840 24.81 -6.8 19.8 72 -11.1 12.1
14:55 1011 29.85 840 24.81 -6.8 19.8 70 -11.4 11.6
15:00 1011 29.85 840 24.81 -7 19.4 71 -11.4 11.4
15:05 1011 29.85 840 24.81 -7.2 19.1 72 -11.4 11.5
15:10 1011 29.85 840 24.81 -7 19.4 72 -11.3 11.6
15:15 1011 29.85 840 24.81 -6.7 19.9 73 -10.9 12.4
15:20 1011 29.85 840 24.81 -6.7 19.9 74 -10.6 12.9
15:25 1011 29.85 840 24.81 -6.7 19.9 75 -10.5 13.1
15:30 1011 29.85 840 24.81 -6.8 19.7 76 -10.5 13.1
15:35 1011 29.85 840 24.81 -6.9 19.5 76 -10.4 13.2
15:40 1011 29.85 840 24.81 -6.9 19.5 77 -10.3 13.4
15:45 1011 29.85 841 24.83 -6.6 20.1 77 -10 14
15:50 1011 29.85 841 24.83 -6.6 20.1 76 -10.1 13.8
15:55 1011 29.85 841 24.83 -6.6 20.1 78 -9.8 14.3
16:00 1012 29.88 841 24.83 -6.9 19.6 78 -10 14
16:05 1012 29.88 841 24.83 -7 19.4 79 -10.1 13.9
16:10 1012 29.88 841 24.83 -6.9 19.5 78 -10.1 13.8
16:15 1012 29.88 841 24.83 -6.9 19.6 77 -10.3 13.5
16:20 1012 29.88 841 24.83 -7.1 19.2 80 -10 13.9
16:25 1012 29.88 841 24.83 -6.9 19.6 81 -9.6 14.7
16:30 1012 29.88 842 24.86 -6.9 19.5 80 -9.8 14.4
16:35 1013 29.91 842 24.86 -7.1 19.3 78 -10.2 13.6
16:40 1013 29.91 842 24.86 -7.3 18.9 79 -10.3 13.4
16:45 1013 29.91 842 24.86 -7.2 19 79 -10.2 13.6
16:50 1013 29.91 842 24.86 -7.2 19.1 79 -10.2 13.6
16:55 1013 29.91 842 24.86 -7.3 19 79 -10.3 13.4
17:00 1013 29.91 842 24.86 -6.9 19.6 78 -10.1 13.9
17:05 1013 29.91 842 24.86 -7 19.4 78 -10.3 13.5
17:10 1013 29.91 842 24.86 -7.1 19.3 78 -10.2 13.6
17:15 1013 29.91 842 24.86 -6.3 20.7 76 -9.8 14.3
17:20 1013 29.91 842 24.86 -5.7 21.8 72 -9.9 14.2
17:25 1013 29.91 842 24.86 -5.3 22.4 70 -9.9 14.2
17:30 1013 29.91 842 24.86 -5.2 22.6 68 -10.2 13.7
17:35 1013 29.91 842 24.86 -5.7 21.7 67 -10.9 12.4
17:40 1013 29.91 842 24.86 -6.3 20.6 70 -11 12.2
17:45 1013 29.91 842 24.86 -6.4 20.5 69 -11.3 11.7
17:50 1013 29.91 842 24.86 -6.2 20.8 69 -11 12.2
17:55 1013 29.91 842 24.86 -5.6 22 66 -10.9 12.4
18:00 1013 29.91 842 24.86 -5.5 22 65 -11.1 12
18:05 1013 29.91 842 24.86 -5.6 22 65 -11.1 11.9
18:10 1013 29.91 842 24.86 -5.8 21.6 67 -11 12.2
18:15 1013 29.91 842 24.86 -4.9 23.2 65 -10.5 13
18:20 1013 29.91 842 24.86 -4.6 23.8 62 -10.8 12.6
18:25 1013 29.91 842 24.86 -4.8 23.4 61 -11.1 11.9
18:30 1013 29.91 842 24.86 -5 23 61 -11.3 11.6
18:35 1013 29.91 842 24.86 -5.1 22.7 62 -11.3 11.7
18:40 1013 29.91 842 24.86 -5.5 22.1 63 -11.4 11.4
18:45 1013 29.91 843 24.89 -5.9 21.4 64 -11.7 11
18:50 1013 29.91 843 24.89 -6.4 20.4 65 -11.9 10.5
18:55 1013 29.91 843 24.89 -6.7 19.9 67 -11.9 10.5
19:00 1014 29.94 843 24.89 -6.6 20 67 -11.8 10.8
19:05 1014 29.94 843 24.89 -6.7 20 68 -11.7 10.9
19:10 1014 29.94 843 24.89 -6.8 19.8 68 -11.7 10.9
19:15 1014 29.94 843 24.89 -6.7 19.9 69 -11.6 11.2
19:20 1014 29.94 843 24.89 -6.7 20 69 -11.5 11.3
19:25 1014 29.94 843 24.89 -6.5 20.3 69 -11.4 11.6
19:30 1014 29.94 843 24.89 -6.4 20.5 68 -11.3 11.7
19:35 1014 29.94 843 24.89 -6.5 20.2 68 -11.5 11.3
19:40 1014 29.94 843 24.89 -6.8 19.8 69 -11.6 11.1
19:45 1014 29.94 843 24.89 -6.6 20.1 69 -11.4 11.5
19:50 1014 29.94 843 24.89 -6.7 20 68 -11.7 11
19:55 1014 29.94 843 24.89 -7 19.4 68 -11.9 10.6
20:00 1014 29.94 843 24.89 -7.2 19.1 69 -12 10.4
20:05 1014 29.94 843 24.89 -7.4 18.7 69 -12.1 10.2
20:10 1014 29.94 843 24.89 -7.4 18.6 70 -12.1 10.3
20:15 1014 29.94 843 24.89 -7.4 18.8 70 -11.9 10.6
20:20 1014 29.94 843 24.89 -7.4 18.8 70 -11.9 10.6
20:25 1014 29.94 843 24.89 -7.4 18.7 71 -11.7 10.9
20:30 1014 29.94 844 24.92 -7.3 18.8 72 -11.5 11.2
20:35 1014 29.94 844 24.92 -7.4 18.7 73 -11.4 11.4
20:40 1014 29.94 844 24.92 -7.4 18.7 74 -11.3 11.7
20:45 1014 29.94 844 24.92 -7.5 18.5 74 -11.3 11.6
20:50 1014 29.94 844 24.92 -7.6 18.4 75 -11.3 11.6
20:55 1014 29.94 844 24.92 -7.6 18.4 75 -11.2 11.8
21:00 1015 29.97 844 24.92 -7.6 18.3 75 -11.3 11.7
21:05 1015 29.97 844 24.92 -7.7 18.1 76 -11.3 11.7
21:10 1015 29.97 844 24.92 -7.7 18.2 76 -11.2 11.9
21:15 1015 29.97 844 24.92 -7.6 18.4 75 -11.3 11.7
21:20 1015 29.97 844 24.92 -7.6 18.2 75 -11.3 11.7
21:25 1015 29.97 844 24.92 -7.6 18.3 75 -11.3 11.7
21:30 1015 29.97 844 24.92 -7.7 18.2 75 -11.3 11.7
21:35 1015 29.97 844 24.92 -7.8 18 76 -11.2 11.8
21:40 1015 29.97 844 24.92 -7.8 17.9 77 -11.2 11.8
21:45 1014 29.94 844 24.92 -7.8 17.9 77 -11.2 11.9
21:50 1014 29.94 844 24.92 -7.9 17.8 78 -11.1 12
21:55 1015 29.97 844 24.92 -7.9 17.8 78 -11.1 12
22:00 1015 29.97 844 24.92 -7.9 17.8 77 -11.3 11.7
22:05 1015 29.97 844 24.92 -8 17.7 77 -11.4 11.6
22:10 1014 29.94 844 24.92 -7.8 18 76 -11.3 11.7
22:15 1015 29.97 844 24.92 -7.7 18.1 76 -11.3 11.6
22:20 1015 29.97 844 24.92 -7.8 18 75 -11.4 11.5
22:25 1014 29.94 844 24.92 -7.7 18.1 75 -11.4 11.6
22:30 1014 29.94 844 24.92 -7.7 18.1 76 -11.3 11.6
22:35 1014 29.94 844 24.92 -7.6 18.3 76 -11.1 12
22:40 1014 29.94 844 24.92 -7.6 18.4 76 -11.1 12
22:45 1014 29.94 844 24.92 -7.7 18.2 76 -11.2 11.9
22:50 1014 29.94 844 24.92 -7.7 18.1 77 -11.1 11.9
22:55 1014 29.94 844 24.92 -7.8 18 77 -11.1 12
23:00 1014 29.94 844 24.92 -7.9 17.9 78 -11.1 12
23:05 1014 29.94 844 24.92 -7.9 17.8 78 -11.1 12
23:10 1014 29.94 844 24.92 -7.9 17.8 78 -11 12.1
23:15 1014 29.94 844 24.92 -7.9 17.7 79 -11 12.2
23:20 1014 29.94 844 24.92 -7.9 17.8 79 -11 12.3
23:25 1014 29.94 844 24.92 -7.9 17.7 79 -11 12.3
23:30 1014 29.94 844 24.92 -7.9 17.8 79 -10.9 12.4
23:35 1014 29.94 844 24.92 -8 17.6 79 -11 12.2
23:40 1014 29.94 843 24.89 -8.1 17.5 79 -11.1 12.1
23:45 1014 29.94 843 24.89 -8.1 17.5 79 -11.1 12.1
23:50 1014 29.94 843 24.89 -8.1 17.5 79 -11.1 12.1
23:55 1014 29.94 843 24.89 -8.1 17.4 79 -11.1 12
24:00 1014 29.94 843 24.89 -8.1 17.4 79 -11.1 12